La Pointe, Wisconsin
Current Conditions -  °F | °C
As of 12:53 AM on Friday 31 Oct 2014 (Local Time) from KASX Reporting Station
Overcast Overcast  
Wind Chill: 20°   Ceiling: 3700
Heat Index: 32°   Visibility: 10mi
Dew Point: 22°   Wind: 20mph
Humidity: 66%   Direction: 360°N
Pressure: 30.32"   Gusts: 29mph
Location:  46.78°N, 90.79°W
Report Text: KASX 310553Z AUTO 36017G25KT 10SM BKN037 OVC046 00/M06 A3032 RMK AO2 PK WND 34028/0537 SLP279 60003 T00001056 10033 21006 400611006 51035 $
Loading
Personal Weather Stations






























Interactive Weather Map
Tropical Storm Tracking
New forecast layout! Learn more

10-Day Weather Forecast

Advertisements
Track Severe Weather on mobile